createdAt,value
2023-04-23T00:00:56.175Z,949.3915
2023-04-23T00:01:57.818Z,949.3908
2023-04-23T00:02:59.873Z,949.3915
2023-04-23T00:04:01.474Z,949.3908
2023-04-23T00:05:02.784Z,949.3777
2023-04-23T00:06:04.467Z,949.3723
2023-04-23T00:07:06.013Z,949.3870
2023-04-23T00:08:07.794Z,949.3892
2023-04-23T00:09:09.335Z,949.3970
2023-04-23T00:10:11.007Z,949.3892
2023-04-23T00:11:13.192Z,949.3846
2023-04-23T00:12:14.282Z,949.3947
2023-04-23T00:13:15.909Z,949.4092
2023-04-23T00:14:17.629Z,949.4208
2023-04-23T00:15:19.719Z,949.4362
2023-04-23T00:16:20.887Z,949.4370
2023-04-23T00:17:22.492Z,949.4385
2023-04-23T00:18:24.154Z,949.4400
2023-04-23T00:19:25.828Z,949.4362
2023-04-23T00:20:27.405Z,949.4385
2023-04-23T00:21:29.030Z,949.4531
2023-04-23T00:22:30.737Z,949.4661
2023-04-23T00:23:32.447Z,949.4746
2023-04-23T00:24:34.330Z,949.4908
2023-04-23T00:25:35.590Z,949.4992
2023-04-23T00:26:37.313Z,949.5070
2023-04-23T00:27:38.931Z,949.5154
2023-04-23T00:28:41.340Z,949.5323
2023-04-23T00:29:42.215Z,949.5431
2023-04-23T00:30:43.883Z,949.5461
2023-04-23T00:31:45.485Z,949.5600
2023-04-23T00:32:47.330Z,949.5739
2023-04-23T00:33:48.736Z,949.5762
2023-04-23T00:34:50.770Z,949.5754
2023-04-23T00:35:52.018Z,949.5723
2023-04-23T00:36:53.733Z,949.5762
2023-04-23T00:37:55.290Z,949.5869
2023-04-23T00:38:57.027Z,949.6208
2023-04-23T00:39:58.764Z,949.6392
2023-04-23T00:41:00.353Z,949.6677
2023-04-23T00:42:01.878Z,949.6708
2023-04-23T00:43:03.568Z,949.6646
2023-04-23T00:44:05.325Z,949.6669
2023-04-23T00:45:06.861Z,949.6623
2023-04-23T00:46:09.314Z,949.6685
2023-04-23T00:47:10.072Z,949.6800
2023-04-23T00:48:11.805Z,949.6838
2023-04-23T00:49:14.323Z,949.6830
2023-04-23T00:50:15.163Z,949.6608
2023-04-23T00:51:17.370Z,949.6554
2023-04-23T00:52:18.359Z,949.6477
2023-04-23T00:53:19.982Z,949.6308
2023-04-23T00:54:21.570Z,949.6346
2023-04-23T00:55:23.331Z,949.6415
2023-04-23T00:56:24.960Z,949.6492
2023-04-23T00:57:26.594Z,949.6561
2023-04-23T00:58:28.140Z,949.6738
2023-04-23T00:59:29.817Z,949.6870
2023-04-23T01:00:32.319Z,949.7031
2023-04-23T01:01:33.251Z,949.7146
2023-04-23T01:02:34.812Z,949.7423
2023-04-23T01:03:36.682Z,949.7515
2023-04-23T01:04:38.177Z,949.7438
2023-04-23T01:05:39.853Z,949.7423
2023-04-23T01:06:41.472Z,949.7184
2023-04-23T01:07:43.079Z,949.7039
2023-04-23T01:08:44.727Z,949.7069
2023-04-23T01:09:46.396Z,949.7070
2023-04-23T01:10:48.102Z,949.7169
2023-04-23T01:11:49.755Z,949.7223
2023-04-23T01:12:51.277Z,949.7261
2023-04-23T01:13:52.991Z,949.7285
2023-04-23T01:14:54.538Z,949.7438
2023-04-23T01:15:56.268Z,949.7538
2023-04-23T01:16:58.874Z,949.7615
2023-04-23T01:17:59.593Z,949.7592
2023-04-23T01:19:01.084Z,949.7685
2023-04-23T01:20:02.746Z,949.7662
2023-04-23T01:21:04.467Z,949.7631
2023-04-23T01:22:06.139Z,949.7654
2023-04-23T01:23:07.763Z,949.7577
2023-04-23T01:24:09.367Z,949.7523
2023-04-23T01:25:10.977Z,949.7485
2023-04-23T01:26:13.592Z,949.7446
2023-04-23T01:27:14.341Z,949.7338
2023-04-23T01:28:15.956Z,949.7277
2023-04-23T01:29:17.599Z,949.7238
2023-04-23T01:30:19.232Z,949.7415
2023-04-23T01:31:20.966Z,949.7531
2023-04-23T01:32:22.647Z,949.7731
2023-04-23T01:33:24.118Z,949.8154
2023-04-23T01:34:26.778Z,949.8416
2023-04-23T01:35:27.343Z,949.8638
2023-04-23T01:36:29.359Z,949.8661
2023-04-23T01:37:30.818Z,949.8685
2023-04-23T01:38:33.295Z,949.8454
2023-04-23T01:39:33.996Z,949.8377
2023-04-23T01:40:36.014Z,949.8323
2023-04-23T01:41:37.237Z,949.8461
2023-04-23T01:42:38.944Z,949.8585
2023-04-23T01:43:40.558Z,949.8692
2023-04-23T01:44:42.568Z,949.8646
2023-04-23T01:45:43.914Z,949.8515
2023-04-23T01:46:45.432Z,949.8538
2023-04-23T01:47:47.224Z,949.8608
2023-04-23T01:48:48.762Z,949.8585
2023-04-23T01:49:50.397Z,949.8646
2023-04-23T01:50:52.141Z,949.8777
2023-04-23T01:51:53.672Z,949.8939
2023-04-23T01:52:55.406Z,949.9016
2023-04-23T01:53:56.918Z,949.9069
2023-04-23T01:54:59.038Z,949.9200
2023-04-23T01:56:00.236Z,949.9223
2023-04-23T01:57:01.880Z,949.9346
2023-04-23T01:58:03.505Z,949.9215
2023-04-23T01:59:06.466Z,949.8831
2023-04-23T02:00:06.760Z,949.8823
2023-04-23T02:01:09.492Z,949.8862
2023-04-23T02:02:10.069Z,949.8877
2023-04-23T02:03:11.892Z,949.9123
2023-04-23T02:04:13.380Z,949.9330
2023-04-23T02:05:15.181Z,949.9092
2023-04-23T02:06:16.613Z,949.8870
2023-04-23T02:07:18.286Z,949.8870
2023-04-23T02:08:19.938Z,949.8692
2023-04-23T02:09:22.649Z,949.8431
2023-04-23T02:10:23.163Z,949.8008
2023-04-23T02:11:25.096Z,949.7577
2023-04-23T02:12:26.584Z,949.7485
2023-04-23T02:13:28.514Z,949.7531
2023-04-23T02:14:29.756Z,949.7377
2023-04-23T02:15:31.487Z,949.7754
2023-04-23T02:16:33.136Z,949.8269
2023-04-23T02:17:34.784Z,949.8416
2023-04-23T02:18:36.366Z,949.8608
2023-04-23T02:19:38.083Z,949.9061
2023-04-23T02:20:39.666Z,949.9507
2023-04-23T02:21:41.422Z,949.9531
2023-04-23T02:22:43.882Z,949.9515
2023-04-23T02:23:44.664Z,949.9500
2023-04-23T02:24:46.306Z,949.9315
2023-04-23T02:25:48.004Z,949.9131
2023-04-23T02:26:49.549Z,949.9031
2023-04-23T02:27:51.218Z,949.8985
2023-04-23T02:28:53.010Z,949.8939
2023-04-23T02:29:54.499Z,949.9169
2023-04-23T02:30:56.090Z,949.9477
2023-04-23T02:31:57.930Z,949.9692
2023-04-23T02:32:59.437Z,949.9639
2023-04-23T02:34:01.029Z,949.9569
2023-04-23T02:35:02.645Z,949.9377
2023-04-23T02:36:04.308Z,949.9246
2023-04-23T02:37:06.957Z,949.9261
2023-04-23T02:38:07.521Z,949.9315
2023-04-23T02:39:09.102Z,949.9223
2023-04-23T02:40:10.907Z,949.9084
2023-04-23T02:41:12.928Z,949.8992
2023-04-23T02:42:14.204Z,949.8908
2023-04-23T02:43:15.783Z,949.8831
2023-04-23T02:44:17.426Z,949.8770
2023-04-23T02:45:19.088Z,949.8877
2023-04-23T02:46:20.780Z,949.8831
2023-04-23T02:47:22.447Z,949.8800
2023-04-23T02:48:24.031Z,949.8846
2023-04-23T02:49:25.650Z,949.8877
2023-04-23T02:50:27.305Z,949.8931
2023-04-23T02:51:29.509Z,949.8992
2023-04-23T02:52:30.579Z,949.9000
2023-04-23T02:53:32.217Z,949.9069
2023-04-23T02:54:33.829Z,949.9092
2023-04-23T02:55:35.500Z,949.8939
2023-04-23T02:56:37.144Z,949.8685
2023-04-23T02:57:38.932Z,949.8307
2023-04-23T02:58:40.392Z,949.8200
2023-04-23T02:59:42.118Z,949.8270
2023-04-23T03:00:43.725Z,949.8170
2023-04-23T03:01:45.394Z,949.8046
2023-04-23T03:02:47.126Z,949.8023
2023-04-23T03:03:48.869Z,949.8008
2023-04-23T03:04:50.256Z,949.7600
2023-04-23T03:05:51.926Z,949.7330
2023-04-23T03:06:53.639Z,949.7085
2023-04-23T03:07:55.936Z,949.7008
2023-04-23T03:08:56.812Z,949.7069
2023-04-23T03:09:58.539Z,949.7446
2023-04-23T03:11:00.167Z,949.7808
2023-04-23T03:12:02.486Z,949.8038
2023-04-23T03:13:03.454Z,949.8223
2023-04-23T03:14:05.140Z,949.8385
2023-04-23T03:15:06.706Z,949.8323
2023-04-23T03:16:08.934Z,949.8115
2023-04-23T03:17:10.060Z,949.7769
2023-04-23T03:18:11.716Z,949.7531
2023-04-23T03:19:13.345Z,949.7216
2023-04-23T03:20:15.914Z,949.7069
2023-04-23T03:21:16.557Z,949.7047
2023-04-23T03:22:18.307Z,949.6900
2023-04-23T03:23:19.926Z,949.6808
2023-04-23T03:24:21.559Z,949.6862
2023-04-23T03:25:23.117Z,949.6815
2023-04-23T03:26:24.828Z,949.6815
2023-04-23T03:27:26.481Z,949.6854
2023-04-23T03:28:28.162Z,949.7047
2023-04-23T03:29:29.707Z,949.7108
2023-04-23T03:30:31.381Z,949.7146
2023-04-23T03:31:32.975Z,949.7169
2023-04-23T03:32:34.714Z,949.7085
2023-04-23T03:33:36.341Z,949.7108
2023-04-23T03:34:37.952Z,949.7146
2023-04-23T03:35:39.594Z,949.7253
2023-04-23T03:36:41.204Z,949.7146
2023-04-23T03:37:42.907Z,949.7015
2023-04-23T03:38:44.596Z,949.6785
2023-04-23T03:39:46.147Z,949.6577
2023-04-23T03:40:47.843Z,949.6370
2023-04-23T03:41:49.418Z,949.6400
2023-04-23T03:42:51.169Z,949.6638
2023-04-23T03:43:53.430Z,949.6715
2023-04-23T03:44:54.371Z,949.6685
2023-04-23T03:45:56.104Z,949.6423
2023-04-23T03:46:58.402Z,949.6023
2023-04-23T03:47:59.428Z,949.5939
2023-04-23T03:49:01.454Z,949.6046
2023-04-23T03:50:02.604Z,949.6130
2023-04-23T03:51:04.229Z,949.6053
2023-04-23T03:52:05.908Z,949.5992
2023-04-23T03:53:07.596Z,949.6092
2023-04-23T03:54:09.128Z,949.6215
2023-04-23T03:55:10.787Z,949.6339
2023-04-23T03:56:12.397Z,949.6392
2023-04-23T03:57:14.016Z,949.6577
2023-04-23T03:58:15.700Z,949.6746
2023-04-23T03:59:17.333Z,949.6915
2023-04-23T04:00:19.032Z,949.7039
2023-04-23T04:01:20.594Z,949.7161
2023-04-23T04:02:22.408Z,949.7223
2023-04-23T04:03:25.185Z,949.7215
2023-04-23T04:04:25.832Z,949.7108
2023-04-23T04:05:27.309Z,949.6938
2023-04-23T04:06:28.914Z,949.6915
2023-04-23T04:07:30.464Z,949.6769
2023-04-23T04:08:32.133Z,949.6646
2023-04-23T04:09:33.764Z,949.6584
2023-04-23T04:10:35.932Z,949.6554
2023-04-23T04:11:37.410Z,949.6516
2023-04-23T04:12:38.739Z,949.6477
2023-04-23T04:13:40.370Z,949.6377
2023-04-23T04:14:42.301Z,949.6200
2023-04-23T04:15:44.459Z,949.6223
2023-04-23T04:16:45.368Z,949.6085
2023-04-23T04:17:47.017Z,949.6100
2023-04-23T04:18:48.724Z,949.6123
2023-04-23T04:19:50.606Z,949.5946
2023-04-23T04:20:52.031Z,949.5670
2023-04-23T04:21:53.630Z,949.5530
2023-04-23T04:22:55.295Z,949.5492
2023-04-23T04:23:57.980Z,949.5431
2023-04-23T04:24:58.454Z,949.5285
2023-04-23T04:26:00.203Z,949.5215
2023-04-23T04:27:01.869Z,949.5054
2023-04-23T04:28:03.554Z,949.4800
2023-04-23T04:29:05.126Z,949.4639
2023-04-23T04:30:06.880Z,949.4654
2023-04-23T04:31:08.505Z,949.4462
2023-04-23T04:32:10.098Z,949.4485
2023-04-23T04:33:11.770Z,949.4639
2023-04-23T04:34:13.449Z,949.4508
2023-04-23T04:35:14.968Z,949.4523
2023-04-23T04:36:16.703Z,949.4385
2023-04-23T04:37:18.279Z,949.4338
2023-04-23T04:38:19.960Z,949.4408
2023-04-23T04:39:21.583Z,949.4500
2023-04-23T04:40:23.278Z,949.4554
2023-04-23T04:41:24.920Z,949.4646
2023-04-23T04:42:26.534Z,949.4723
2023-04-23T04:43:28.227Z,949.4731
2023-04-23T04:44:29.796Z,949.4761
2023-04-23T04:45:31.509Z,949.4677
2023-04-23T04:46:33.131Z,949.4562
2023-04-23T04:47:34.776Z,949.4446
2023-04-23T04:48:37.377Z,949.4423
2023-04-23T04:49:38.089Z,949.4354
2023-04-23T04:50:39.680Z,949.4362
2023-04-23T04:51:41.293Z,949.4285
2023-04-23T04:52:42.983Z,949.4261
2023-04-23T04:53:44.589Z,949.4254
2023-04-23T04:54:46.226Z,949.4200
2023-04-23T04:55:47.907Z,949.4230
2023-04-23T04:56:49.627Z,949.4362
2023-04-23T04:57:52.200Z,949.4623
2023-04-23T04:58:53.776Z,949.4869
2023-04-23T04:59:55.350Z,949.5031
2023-04-23T05:00:56.098Z,949.5015
2023-04-23T05:01:57.793Z,949.4977
2023-04-23T05:02:59.535Z,949.4885
2023-04-23T05:04:01.109Z,949.4808
2023-04-23T05:05:02.619Z,949.4777
2023-04-23T05:06:04.302Z,949.4838
2023-04-23T05:07:05.925Z,949.4977
2023-04-23T05:08:07.574Z,949.5015
2023-04-23T05:09:09.173Z,949.4962
2023-04-23T05:10:10.931Z,949.4938
2023-04-23T05:11:12.498Z,949.5000
2023-04-23T05:12:14.238Z,949.5077
2023-04-23T05:13:15.855Z,949.5192
2023-04-23T05:14:17.459Z,949.5170
2023-04-23T05:15:19.108Z,949.5177
2023-04-23T05:16:20.871Z,949.5131
2023-04-23T05:17:23.075Z,949.4930
2023-04-23T05:18:24.120Z,949.4838
2023-04-23T05:19:25.647Z,949.4753
2023-04-23T05:20:27.352Z,949.4608
2023-04-23T05:21:29.022Z,949.4454
2023-04-23T05:22:30.670Z,949.4423
2023-04-23T05:23:32.213Z,949.4323
2023-04-23T05:24:33.948Z,949.4061
2023-04-23T05:25:35.580Z,949.3862
2023-04-23T05:26:37.267Z,949.3677
2023-04-23T05:27:38.893Z,949.3592
2023-04-23T05:28:40.517Z,949.3777
2023-04-23T05:29:42.118Z,949.4031
2023-04-23T05:30:43.804Z,949.4330
2023-04-23T05:31:45.498Z,949.4554
2023-04-23T05:32:47.198Z,949.4830
2023-04-23T05:33:50.504Z,949.5031
2023-04-23T05:34:50.372Z,949.5115
2023-04-23T05:35:52.019Z,949.5170
2023-04-23T05:36:53.772Z,949.5100
2023-04-23T05:37:55.373Z,949.4946
2023-04-23T05:38:56.996Z,949.4877
2023-04-23T05:39:58.577Z,949.4892
2023-04-23T05:41:00.291Z,949.5008
2023-04-23T05:42:02.405Z,949.5023
2023-04-23T05:43:03.579Z,949.5154
2023-04-23T05:44:05.185Z,949.5139
2023-04-23T05:45:08.864Z,949.5131
2023-04-23T05:46:08.512Z,949.5008
2023-04-23T05:47:10.203Z,949.4792
2023-04-23T05:48:11.843Z,949.4585
2023-04-23T05:49:13.468Z,949.4392
2023-04-23T05:50:15.092Z,949.4177
2023-04-23T05:51:16.788Z,949.4161
2023-04-23T05:52:18.434Z,949.4323
2023-04-23T05:53:20.162Z,949.4500
2023-04-23T05:54:21.653Z,949.4554
2023-04-23T05:55:23.338Z,949.4646
2023-04-23T05:56:25.058Z,949.4738
2023-04-23T05:57:27.525Z,949.4769
2023-04-23T05:58:28.346Z,949.4861
2023-04-23T05:59:29.978Z,949.4930
2023-04-23T06:00:31.630Z,949.4892
2023-04-23T06:01:33.205Z,949.4815
2023-04-23T06:02:35.042Z,949.4562
2023-04-23T06:03:36.793Z,949.4338
2023-04-23T06:04:38.361Z,949.4215
2023-04-23T06:05:39.835Z,949.4215
2023-04-23T06:06:41.484Z,949.4269
2023-04-23T06:07:43.180Z,949.4423
2023-04-23T06:08:45.063Z,949.4577
2023-04-23T06:09:46.401Z,949.4938
2023-04-23T06:10:48.108Z,949.5185
2023-04-23T06:11:49.683Z,949.5361
2023-04-23T06:12:51.592Z,949.5592
2023-04-23T06:13:53.060Z,949.5739
2023-04-23T06:14:54.689Z,949.5892
2023-04-23T06:15:56.319Z,949.5839
2023-04-23T06:16:57.981Z,949.5454
2023-04-23T06:17:59.666Z,949.5100
2023-04-23T06:19:01.588Z,949.4861
2023-04-23T06:20:02.904Z,949.4708
2023-04-23T06:21:04.566Z,949.4700
2023-04-23T06:22:06.164Z,949.4823
2023-04-23T06:23:07.866Z,949.5070
2023-04-23T06:24:09.504Z,949.5008
2023-04-23T06:25:11.180Z,949.4938
2023-04-23T06:26:12.722Z,949.4761
2023-04-23T06:27:14.421Z,949.4477
2023-04-23T06:28:16.163Z,949.4254
2023-04-23T06:29:17.758Z,949.4153
2023-04-23T06:30:19.374Z,949.4031
2023-04-23T06:31:21.061Z,949.3900
2023-04-23T06:32:22.630Z,949.3823
2023-04-23T06:33:24.284Z,949.3870
2023-04-23T06:34:26.131Z,949.3885
2023-04-23T06:35:27.635Z,949.3962
2023-04-23T06:36:29.166Z,949.3854
2023-04-23T06:37:31.029Z,949.3646
2023-04-23T06:38:32.428Z,949.3477
2023-04-23T06:39:34.183Z,949.3354
2023-04-23T06:40:35.718Z,949.3138
2023-04-23T06:41:37.337Z,949.3069
2023-04-23T06:42:40.096Z,949.3100
2023-04-23T06:43:40.887Z,949.3023
2023-04-23T06:44:42.675Z,949.2892
2023-04-23T06:45:44.232Z,949.2523
2023-04-23T06:46:45.826Z,949.2169
2023-04-23T06:47:48.212Z,949.1915
2023-04-23T06:48:48.999Z,949.1730
2023-04-23T06:49:50.736Z,949.1539
2023-04-23T06:50:52.379Z,949.1385
2023-04-23T06:51:56.975Z,949.1185
2023-04-23T06:52:55.476Z,949.0862
2023-04-23T06:53:57.193Z,949.0700
2023-04-23T06:54:59.862Z,949.0700
2023-04-23T06:56:00.461Z,949.0562
2023-04-23T06:57:02.179Z,949.0308
2023-04-23T06:58:03.753Z,949.0308
2023-04-23T06:59:05.356Z,949.0377
2023-04-23T07:00:07.109Z,949.0361
2023-04-23T07:01:08.701Z,949.0346
2023-04-23T07:02:10.369Z,949.0331
2023-04-23T07:03:11.997Z,949.0323
2023-04-23T07:04:13.669Z,949.0292
2023-04-23T07:05:15.272Z,949.0154
2023-04-23T07:06:18.603Z,948.9946
2023-04-23T07:07:18.508Z,948.9615
2023-04-23T07:08:20.205Z,948.9423
2023-04-23T07:09:21.818Z,948.9362
2023-04-23T07:10:23.560Z,948.9408
2023-04-23T07:11:25.142Z,948.9346
2023-04-23T07:12:26.830Z,948.9092
2023-04-23T07:13:28.442Z,948.8754
2023-04-23T07:14:30.087Z,948.8246
2023-04-23T07:15:31.845Z,948.8154
2023-04-23T07:16:33.480Z,948.7816
2023-04-23T07:17:34.992Z,948.7492
2023-04-23T07:18:36.657Z,948.7238
2023-04-23T07:19:38.288Z,948.7330
2023-04-23T07:20:39.989Z,948.7570
2023-04-23T07:21:41.578Z,948.7715
2023-04-23T07:22:43.232Z,948.7777
2023-04-23T07:23:44.865Z,948.7785
2023-04-23T07:24:46.522Z,948.7877
2023-04-23T07:25:48.183Z,948.7808
2023-04-23T07:26:49.858Z,948.7408
2023-04-23T07:27:51.401Z,948.7069
2023-04-23T07:28:53.183Z,948.7023
2023-04-23T07:29:54.704Z,948.6854
2023-04-23T07:30:56.454Z,948.6492
2023-04-23T07:31:58.077Z,948.6346
2023-04-23T07:32:59.718Z,948.6177
2023-04-23T07:34:01.392Z,948.6069
2023-04-23T07:35:02.975Z,948.6077
2023-04-23T07:36:04.598Z,948.5800
2023-04-23T07:37:06.316Z,948.5323
2023-04-23T07:38:07.860Z,948.5277
2023-04-23T07:39:09.545Z,948.5269
2023-04-23T07:40:11.189Z,948.5461
2023-04-23T07:41:12.914Z,948.5392
2023-04-23T07:42:15.068Z,948.5546
2023-04-23T07:43:16.142Z,948.5654
2023-04-23T07:44:17.761Z,948.5554
2023-04-23T07:45:19.500Z,948.5492
2023-04-23T07:46:21.146Z,948.5461
2023-04-23T07:47:23.002Z,948.5469
2023-04-23T07:48:24.413Z,948.5208
2023-04-23T07:49:26.021Z,948.4846
2023-04-23T07:50:27.637Z,948.4769
2023-04-23T07:51:29.351Z,948.4869
2023-04-23T07:52:30.957Z,948.5054
2023-04-23T07:53:32.577Z,948.4992
2023-04-23T07:54:34.207Z,948.4846
2023-04-23T07:55:35.917Z,948.4761
2023-04-23T07:56:37.597Z,948.4646
2023-04-23T07:57:39.241Z,948.4585
2023-04-23T07:58:40.815Z,948.4608
2023-04-23T07:59:42.863Z,948.4569
2023-04-23T08:00:44.088Z,948.4523
2023-04-23T08:01:45.820Z,948.4485
2023-04-23T08:02:47.614Z,948.4477
2023-04-23T08:03:49.440Z,948.4500
2023-04-23T08:04:50.827Z,948.4400
2023-04-23T08:05:52.336Z,948.4423
2023-04-23T08:06:54.045Z,948.4346
2023-04-23T08:07:55.645Z,948.4292
2023-04-23T08:08:57.308Z,948.4246
2023-04-23T08:09:58.900Z,948.4077
2023-04-23T08:11:00.547Z,948.3754
2023-04-23T08:12:02.236Z,948.3531
2023-04-23T08:13:03.902Z,948.3608
2023-04-23T08:14:05.496Z,948.3623
2023-04-23T08:15:07.220Z,948.3638
2023-04-23T08:16:08.790Z,948.3654
2023-04-23T08:17:10.463Z,948.3515
2023-04-23T08:18:12.107Z,948.3423
2023-04-23T08:19:13.706Z,948.3400
2023-04-23T08:20:15.302Z,948.3431
2023-04-23T08:21:17.031Z,948.3323
2023-04-23T08:22:20.293Z,948.3292
2023-04-23T08:23:20.353Z,948.3262
2023-04-23T08:24:22.456Z,948.3262
2023-04-23T08:25:23.603Z,948.3192
2023-04-23T08:26:25.214Z,948.3100
2023-04-23T08:27:26.971Z,948.2954
2023-04-23T08:28:28.593Z,948.2739
2023-04-23T08:29:30.208Z,948.2670
2023-04-23T08:30:31.789Z,948.2685
2023-04-23T08:31:33.509Z,948.2646
2023-04-23T08:32:35.158Z,948.2654
2023-04-23T08:33:36.875Z,948.2631
2023-04-23T08:34:38.442Z,948.2592
2023-04-23T08:35:40.078Z,948.2446
2023-04-23T08:36:41.649Z,948.2292
2023-04-23T08:37:43.444Z,948.2261
2023-04-23T08:38:44.989Z,948.2123
2023-04-23T08:39:46.686Z,948.2031
2023-04-23T08:40:48.227Z,948.2015
2023-04-23T08:41:49.926Z,948.2092
2023-04-23T08:42:51.644Z,948.2231
2023-04-23T08:43:53.238Z,948.2208
2023-04-23T08:44:54.801Z,948.2215
2023-04-23T08:45:56.510Z,948.2169
2023-04-23T08:46:58.248Z,948.2115
2023-04-23T08:48:02.134Z,948.2031
2023-04-23T08:49:01.452Z,948.2070
2023-04-23T08:50:03.074Z,948.2169
2023-04-23T08:51:04.690Z,948.2261
2023-04-23T08:52:06.380Z,948.2269
2023-04-23T08:53:08.065Z,948.2092
2023-04-23T08:54:09.679Z,948.2023
2023-04-23T08:55:11.255Z,948.1962
2023-04-23T08:56:12.940Z,948.1830
2023-04-23T08:57:14.574Z,948.1915
2023-04-23T08:58:16.279Z,948.2023
2023-04-23T08:59:17.911Z,948.1900
2023-04-23T09:00:19.455Z,948.1870
2023-04-23T09:01:21.297Z,948.1830
2023-04-23T09:02:22.986Z,948.1631
2023-04-23T09:03:24.547Z,948.1546
2023-04-23T09:04:26.164Z,948.1584
2023-04-23T09:05:27.710Z,948.1546
2023-04-23T09:06:29.422Z,948.1577
2023-04-23T09:07:31.023Z,948.1584
2023-04-23T09:08:32.753Z,948.1630
2023-04-23T09:09:34.641Z,948.1800
2023-04-23T09:10:35.974Z,948.1870
2023-04-23T09:11:37.577Z,948.1800
2023-04-23T09:12:39.276Z,948.1908
2023-04-23T09:13:40.950Z,948.1985
2023-04-23T09:14:42.852Z,948.1946
2023-04-23T09:15:44.169Z,948.1931
2023-04-23T09:16:45.922Z,948.1769
2023-04-23T09:17:47.529Z,948.1646
2023-04-23T09:18:49.194Z,948.1462
2023-04-23T09:19:50.858Z,948.1254
2023-04-23T09:20:52.528Z,948.1000
2023-04-23T09:21:54.046Z,948.0746
2023-04-23T09:22:55.727Z,948.0569
2023-04-23T09:23:57.449Z,948.0438
2023-04-23T09:24:59.090Z,948.0377
2023-04-23T09:26:00.627Z,948.0392
2023-04-23T09:27:02.267Z,948.0469
2023-04-23T09:28:03.958Z,948.0423
2023-04-23T09:29:05.609Z,948.0400
2023-04-23T09:30:07.294Z,948.0323
2023-04-23T09:31:08.879Z,948.0046
2023-04-23T09:32:10.586Z,948.0008
2023-04-23T09:33:12.151Z,947.9985
2023-04-23T09:34:14.206Z,947.9938
2023-04-23T09:35:15.554Z,947.9808
2023-04-23T09:36:17.233Z,947.9692
2023-04-23T09:37:18.783Z,947.9377
2023-04-23T09:38:20.428Z,947.9084
2023-04-23T09:39:22.065Z,947.8877
2023-04-23T09:40:23.749Z,947.8638
2023-04-23T09:41:25.304Z,947.8208
2023-04-23T09:42:26.986Z,947.7961
2023-04-23T09:43:28.575Z,947.7861
2023-04-23T09:44:30.353Z,947.7800
2023-04-23T09:45:31.945Z,947.7654
2023-04-23T09:46:33.562Z,947.7415
2023-04-23T09:47:35.252Z,947.7015
2023-04-23T09:48:36.879Z,947.6584
2023-04-23T09:49:38.534Z,947.6208
2023-04-23T09:50:40.245Z,947.5608
2023-04-23T09:51:41.769Z,947.5331
2023-04-23T09:52:43.431Z,947.5123
2023-04-23T09:53:45.056Z,947.5046
2023-04-23T09:54:47.214Z,947.4769
2023-04-23T09:55:48.397Z,947.4639
2023-04-23T09:56:50.076Z,947.4608
2023-04-23T09:57:51.611Z,947.4639
2023-04-23T09:58:53.366Z,947.4615
2023-04-23T10:00:03.754Z,947.4408
2023-04-23T10:00:56.638Z,947.4261
2023-04-23T10:01:58.289Z,947.4138
2023-04-23T10:03:00.168Z,947.3846
2023-04-23T10:04:01.694Z,947.3815
2023-04-23T10:05:21.468Z,947.3947
2023-04-23T10:06:05.264Z,947.4177
2023-04-23T10:07:17.923Z,947.4423
2023-04-23T10:08:08.232Z,947.4608
2023-04-23T10:09:09.704Z,947.4547
2023-04-23T10:10:11.463Z,947.4308
2023-04-23T10:11:20.734Z,947.3907
2023-04-23T10:13:16.302Z,947.3469
2023-04-23T10:14:17.962Z,947.3339
2023-04-23T10:15:19.684Z,947.3431
2023-04-23T10:16:23.284Z,947.3423
2023-04-23T10:17:22.932Z,947.3646
2023-04-23T10:18:24.492Z,947.3762
2023-04-23T10:19:27.171Z,947.3785
2023-04-23T10:20:27.878Z,947.3762
2023-04-23T10:21:36.620Z,947.3685
2023-04-23T10:22:31.067Z,947.3523
2023-04-23T10:23:32.802Z,947.3192
2023-04-23T10:24:34.371Z,947.3138
2023-04-23T10:25:36.729Z,947.3092
2023-04-23T10:26:38.190Z,947.3038
2023-04-23T10:27:51.118Z,947.3085
2023-04-23T10:28:41.042Z,947.3100
2023-04-23T10:29:43.017Z,947.2915
2023-04-23T10:30:44.681Z,947.2700
2023-04-23T10:31:45.980Z,947.2562
2023-04-23T10:32:47.561Z,947.2346
2023-04-23T10:33:58.204Z,947.2054
2023-04-23T10:34:50.931Z,947.1830
2023-04-23T10:35:52.601Z,947.1577
2023-04-23T10:36:54.181Z,947.1669
2023-04-23T10:37:55.844Z,947.1584
2023-04-23T10:38:59.106Z,947.1370
2023-04-23T10:39:59.132Z,947.1161
2023-04-23T10:41:00.801Z,947.0900
2023-04-23T10:42:02.466Z,947.0777
2023-04-23T10:43:04.026Z,947.0785
2023-04-23T10:44:05.723Z,947.0708
2023-04-23T10:45:16.613Z,947.0638
2023-04-23T10:46:09.139Z,947.0492
2023-04-23T10:47:10.738Z,947.0339
2023-04-23T10:48:12.460Z,947.0285
2023-04-23T10:49:14.016Z,947.0170
2023-04-23T10:50:15.744Z,947.0085
2023-04-23T10:51:56.084Z,946.9946
2023-04-23T10:52:21.495Z,946.9861
2023-04-23T10:53:20.604Z,946.9923
2023-04-23T10:54:22.319Z,946.9808
2023-04-23T10:55:23.969Z,946.9861
2023-04-23T10:56:25.789Z,946.9731
2023-04-23T10:57:27.271Z,946.9508
2023-04-23T10:58:28.943Z,946.9438
2023-04-23T10:59:30.465Z,946.9323
2023-04-23T11:00:32.164Z,946.9277
2023-04-23T11:01:33.827Z,946.9177
2023-04-23T11:02:35.607Z,946.9177
2023-04-23T11:03:39.646Z,946.9138
2023-04-23T11:04:38.834Z,946.9046
2023-04-23T11:05:40.389Z,946.9077
2023-04-23T11:06:42.089Z,946.9177
2023-04-23T11:07:43.750Z,946.9108
2023-04-23T11:08:45.426Z,946.8947
2023-04-23T11:09:47.013Z,946.8600
2023-04-23T11:10:48.667Z,946.8138
2023-04-23T11:11:50.288Z,946.7977
2023-04-23T11:12:52.027Z,946.8062
2023-04-23T11:13:53.621Z,946.7969
2023-04-23T11:14:55.307Z,946.8008
2023-04-23T11:15:56.907Z,946.8192
2023-04-23T11:16:58.530Z,946.8192
2023-04-23T11:18:00.216Z,946.8085
2023-04-23T11:19:01.911Z,946.7762
2023-04-23T11:20:03.558Z,946.7623
2023-04-23T11:21:05.187Z,946.7100
2023-04-23T11:22:06.767Z,946.7062
2023-04-23T11:23:08.462Z,946.7123
2023-04-23T11:24:10.097Z,946.6862
2023-04-23T11:25:11.842Z,946.6830
2023-04-23T11:26:13.424Z,946.6738
2023-04-23T11:27:15.044Z,946.6846
2023-04-23T11:28:16.694Z,946.6977
2023-04-23T11:29:18.339Z,946.6931
2023-04-23T11:30:19.962Z,946.7000
2023-04-23T11:31:21.656Z,946.6854
2023-04-23T11:32:23.298Z,946.6715
2023-04-23T11:33:24.927Z,946.6715
2023-04-23T11:34:26.604Z,946.6653
2023-04-23T11:35:28.167Z,946.6462
2023-04-23T11:36:30.699Z,946.6038
2023-04-23T11:37:31.480Z,946.5792
2023-04-23T11:38:33.056Z,946.5646
2023-04-23T11:39:34.733Z,946.5546
2023-04-23T11:40:36.643Z,946.5569
2023-04-23T11:41:38.087Z,946.5461
2023-04-23T11:42:39.664Z,946.5246
2023-04-23T11:43:42.212Z,946.5154
2023-04-23T11:44:42.972Z,946.4938
2023-04-23T11:45:44.701Z,946.4738
2023-04-23T11:46:46.272Z,946.4646
2023-04-23T11:47:47.962Z,946.4547
2023-04-23T11:48:49.562Z,946.4254
2023-04-23T11:49:51.271Z,946.4431
2023-04-23T11:50:53.130Z,946.4600
2023-04-23T11:51:54.611Z,946.4531
2023-04-23T11:52:56.201Z,946.4677
2023-04-23T11:53:57.906Z,946.4300
2023-04-23T11:54:59.467Z,946.3969
2023-04-23T11:56:01.219Z,946.3646
2023-04-23T11:57:02.788Z,946.3362
2023-04-23T11:58:04.472Z,946.3285
2023-04-23T11:59:06.069Z,946.3154
2023-04-23T12:00:07.763Z,946.3223
2023-04-23T12:01:09.448Z,946.3054
2023-04-23T12:02:11.100Z,946.2938
2023-04-23T12:03:12.936Z,946.3000
2023-04-23T12:04:14.662Z,946.2877
2023-04-23T12:05:16.154Z,946.2739